createdAt,value
2023-03-08T00:00:01.376Z,38.35
2023-03-08T00:03:04.836Z,34.13
2023-03-08T00:06:09.158Z,31.17
2023-03-08T00:09:12.459Z,31.73
2023-03-08T00:12:19.120Z,32.17
2023-03-08T00:15:23.750Z,34.13
2023-03-08T00:18:26.909Z,39.50
2023-03-08T00:21:30.248Z,38.08
2023-03-08T00:24:33.456Z,36.78
2023-03-08T00:27:37.089Z,36.15
2023-03-08T00:30:41.677Z,32.85
2023-03-08T00:33:44.949Z,35.90
2023-03-08T00:36:50.353Z,35.72
2023-03-08T00:39:55.012Z,35.28
2023-03-08T00:42:58.655Z,38.70
2023-03-08T00:46:03.647Z,34.47
2023-03-08T00:49:07.038Z,36.10
2023-03-08T00:52:10.963Z,34.05
2023-03-08T00:55:14.400Z,36.72
2023-03-08T00:58:17.719Z,38.58
2023-03-08T01:01:22.642Z,38.47
2023-03-08T01:04:26.770Z,33.85
2023-03-08T01:07:30.553Z,39.20
2023-03-08T01:10:34.006Z,36.20
2023-03-08T01:13:37.674Z,39.17
2023-03-08T01:16:45.476Z,40.08
2023-03-08T01:19:49.233Z,59.40
2023-03-08T01:22:54.296Z,42.33
2023-03-08T01:26:01.484Z,43.03
2023-03-08T01:29:04.812Z,49.97
2023-03-08T01:32:10.189Z,51.97
2023-03-08T01:35:13.687Z,49.60
2023-03-08T01:38:17.057Z,47.72
2023-03-08T01:41:23.032Z,50.63
2023-03-08T01:44:26.797Z,50.67
2023-03-08T01:47:36.072Z,50.88
2023-03-08T01:50:47.606Z,46.40
2023-03-08T01:53:51.467Z,49.22
2023-03-08T01:57:00.653Z,45.88
2023-03-08T02:00:17.304Z,47.45
2023-03-08T02:03:22.083Z,46.53
2023-03-08T02:06:25.376Z,44.33
2023-03-08T02:09:28.804Z,43.55
2023-03-08T02:12:33.362Z,51.67
2023-03-08T02:15:36.891Z,49.47
2023-03-08T02:18:53.023Z,92.55
2023-03-08T02:21:57.864Z,47.88
2023-03-08T02:25:02.730Z,46.78
2023-03-08T02:28:07.053Z,47.63
2023-03-08T02:31:10.562Z,49.13
2023-03-08T02:34:13.873Z,50.25
2023-03-08T02:37:17.402Z,49.05
2023-03-08T02:40:25.578Z,49.38
2023-03-08T02:43:29.860Z,51.38
2023-03-08T02:46:33.175Z,51.78
2023-03-08T02:49:36.568Z,60.22
2023-03-08T02:52:40.075Z,53.72
2023-03-08T02:55:45.037Z,62.17
2023-03-08T02:58:52.400Z,58.67
2023-03-08T03:01:58.379Z,60.22
2023-03-08T03:05:01.682Z,60.40
2023-03-08T03:08:05.114Z,62.08
2023-03-08T03:11:14.747Z,59.00
2023-03-08T03:14:18.110Z,59.40
2023-03-08T03:17:22.101Z,56.35
2023-03-08T03:20:25.815Z,62.88
2023-03-08T03:23:30.875Z,54.05
2023-03-08T03:26:36.638Z,60.50
2023-03-08T03:29:40.264Z,57.90
2023-03-08T03:32:50.674Z,61.72
2023-03-08T03:35:59.682Z,56.45
2023-03-08T03:39:03.306Z,62.63
2023-03-08T03:42:11.302Z,53.08
2023-03-08T03:45:20.228Z,56.53
2023-03-08T03:48:24.639Z,55.05
2023-03-08T03:51:32.215Z,56.97
2023-03-08T03:55:02.163Z,56.20
2023-03-08T03:58:09.862Z,54.50
2023-03-08T04:01:24.770Z,53.20
2023-03-08T04:04:37.981Z,54.40
2023-03-08T04:07:52.849Z,52.80
2023-03-08T04:11:04.556Z,51.85
2023-03-08T04:14:13.094Z,53.35
2023-03-08T04:17:20.260Z,56.67
2023-03-08T04:20:35.777Z,52.40
2023-03-08T04:23:40.866Z,57.42
2023-03-08T04:26:45.196Z,49.45
2023-03-08T04:29:54.342Z,71.05
2023-03-08T04:32:58.790Z,56.60
2023-03-08T04:36:09.320Z,62.28
2023-03-08T04:39:12.728Z,54.08
2023-03-08T04:42:16.434Z,58.25
2023-03-08T04:45:22.463Z,57.42
2023-03-08T04:48:27.262Z,73.88
2023-03-08T04:51:30.599Z,45.30
2023-03-08T04:54:39.130Z,33.78
2023-03-08T04:57:52.014Z,31.90
2023-03-08T05:00:57.120Z,32.65
2023-03-08T05:04:00.905Z,31.27
2023-03-08T05:07:10.973Z,31.95
2023-03-08T05:10:15.160Z,30.70
2023-03-08T05:13:18.789Z,32.72
2023-03-08T05:16:25.217Z,32.85
2023-03-08T05:19:28.725Z,29.20
2023-03-08T05:22:32.093Z,24.60
2023-03-08T05:25:35.844Z,22.55
2023-03-08T05:28:39.571Z,20.75
2023-03-08T05:31:45.539Z,22.83
2023-03-08T05:34:50.805Z,21.92
2023-03-08T05:38:00.998Z,23.45
2023-03-08T05:41:06.971Z,25.00
2023-03-08T05:44:10.386Z,22.35
2023-03-08T05:47:16.369Z,20.95
2023-03-08T05:50:22.440Z,16.25
2023-03-08T05:53:28.494Z,16.15
2023-03-08T05:56:31.995Z,18.40
2023-03-08T05:59:46.833Z,14.60
2023-03-08T06:02:55.285Z,12.85
2023-03-08T06:05:58.770Z,12.07
2023-03-08T06:09:02.484Z,11.90
2023-03-08T06:12:07.867Z,11.23
2023-03-08T06:15:13.089Z,11.85
2023-03-08T06:18:17.918Z,10.57
2023-03-08T06:21:23.042Z,13.75
2023-03-08T06:24:33.664Z,10.18
2023-03-08T06:27:39.489Z,13.02
2023-03-08T06:30:54.259Z,12.15
2023-03-08T06:33:59.219Z,14.18
2023-03-08T06:37:04.269Z,15.55
2023-03-08T06:40:09.272Z,18.42
2023-03-08T06:43:12.754Z,18.55
2023-03-08T06:46:18.826Z,17.45
2023-03-08T06:49:23.853Z,19.83
2023-03-08T06:52:27.159Z,21.23
2023-03-08T06:55:30.547Z,21.35
2023-03-08T06:58:34.250Z,21.83
2023-03-08T07:01:37.496Z,17.88
2023-03-08T07:04:42.157Z,19.50
2023-03-08T07:07:45.468Z,21.20
2023-03-08T07:10:48.708Z,22.90
2023-03-08T07:13:51.854Z,21.08
2023-03-08T07:16:55.073Z,18.25
2023-03-08T07:19:59.611Z,18.55
2023-03-08T07:23:02.837Z,16.02
2023-03-08T07:26:07.046Z,16.30
2023-03-08T07:29:10.205Z,16.80
2023-03-08T07:32:13.493Z,12.60
2023-03-08T07:35:18.350Z,15.77
2023-03-08T07:38:21.711Z,10.75
2023-03-08T07:41:24.936Z,14.05
2023-03-08T07:44:28.183Z,11.63
2023-03-08T07:47:31.425Z,12.55
2023-03-08T07:50:36.454Z,22.13
2023-03-08T07:53:39.889Z,15.52
2023-03-08T07:56:43.069Z,13.43
2023-03-08T07:59:46.392Z,12.75
2023-03-08T08:02:49.661Z,11.48
2023-03-08T08:05:54.309Z,14.73
2023-03-08T08:08:58.424Z,16.63
2023-03-08T08:12:01.642Z,13.90
2023-03-08T08:15:05.796Z,13.02
2023-03-08T08:18:09.075Z,17.13
2023-03-08T08:21:15.536Z,11.80
2023-03-08T08:24:18.979Z,14.40
2023-03-08T08:27:22.272Z,13.45
2023-03-08T08:30:25.635Z,15.38
2023-03-08T08:33:29.989Z,13.73
2023-03-08T08:36:34.748Z,10.77
2023-03-08T08:39:38.160Z,9.70
2023-03-08T08:42:41.478Z,11.25
2023-03-08T08:45:46.206Z,11.90
2023-03-08T08:48:49.481Z,12.20
2023-03-08T08:51:54.030Z,15.63
2023-03-08T08:54:57.947Z,22.08
2023-03-08T08:58:01.831Z,13.15
2023-03-08T09:01:07.643Z,10.25
2023-03-08T09:04:14.672Z,9.77
2023-03-08T09:07:19.325Z,13.48
2023-03-08T09:10:22.749Z,12.15
2023-03-08T09:13:26.218Z,14.75
2023-03-08T09:16:30.887Z,11.23
2023-03-08T09:19:36.568Z,52.58
2023-03-08T09:22:41.962Z,10.52
2023-03-08T09:25:45.216Z,35.00
2023-03-08T09:28:48.502Z,12.77
2023-03-08T09:31:51.790Z,11.73
2023-03-08T09:34:56.052Z,12.98
2023-03-08T09:38:01.975Z,14.00
2023-03-08T09:41:21.918Z,8.50
2023-03-08T09:44:49.063Z,7.72
2023-03-08T09:48:05.002Z,14.15
2023-03-08T09:51:12.760Z,17.92
2023-03-08T09:54:22.817Z,10.15
2023-03-08T09:57:30.313Z,7.57
2023-03-08T10:00:37.537Z,10.13
2023-03-08T10:04:19.436Z,9.60
2023-03-08T10:07:34.437Z,7.03
2023-03-08T10:11:00.261Z,7.47
2023-03-08T10:14:14.444Z,11.43
2023-03-08T10:17:23.195Z,11.35
2023-03-08T10:20:29.973Z,7.60
2023-03-08T10:23:33.980Z,6.60
2023-03-08T10:26:38.869Z,6.30
2023-03-08T10:29:48.580Z,12.30
2023-03-08T10:32:56.469Z,8.35
2023-03-08T10:36:04.403Z,13.25
2023-03-08T10:39:09.954Z,9.43
2023-03-08T10:42:17.987Z,11.45
2023-03-08T10:45:24.108Z,8.52
2023-03-08T10:48:27.315Z,7.35
2023-03-08T10:51:31.394Z,11.38
2023-03-08T10:54:35.252Z,6.90
2023-03-08T10:57:42.177Z,6.60
2023-03-08T11:00:45.681Z,10.32
2023-03-08T11:03:59.751Z,33.72
2023-03-08T11:07:12.666Z,6.15
2023-03-08T11:10:18.555Z,6.78
2023-03-08T11:13:29.881Z,8.23
2023-03-08T11:16:54.739Z,11.98
2023-03-08T11:20:11.094Z,21.63
2023-03-08T11:23:22.749Z,11.75
2023-03-08T11:26:35.606Z,10.90
2023-03-08T11:29:48.917Z,7.90
2023-03-08T11:33:04.161Z,7.57
2023-03-08T11:36:13.754Z,11.93
2023-03-08T11:39:25.467Z,12.38
2023-03-08T11:42:37.191Z,7.47
2023-03-08T11:51:35.175Z,7.88
2023-03-08T11:54:54.266Z,7.50
2023-03-08T11:58:04.166Z,11.23
2023-03-08T12:01:15.025Z,7.85
2023-03-08T12:04:23.677Z,9.57
2023-03-08T12:07:32.406Z,8.93
2023-03-08T12:10:44.978Z,5.55
2023-03-08T12:13:52.428Z,10.30
2023-03-08T12:17:02.573Z,7.15
2023-03-08T12:20:08.236Z,8.77
2023-03-08T12:23:21.221Z,9.80
2023-03-08T12:26:30.903Z,8.50
2023-03-08T12:29:39.322Z,6.40
2023-03-08T12:32:44.205Z,8.15
2023-03-08T12:35:55.486Z,8.38
2023-03-08T12:39:08.202Z,9.65
2023-03-08T12:42:17.771Z,8.80
2023-03-08T12:45:30.960Z,7.87
2023-03-08T12:48:37.638Z,8.95
2023-03-08T12:51:42.813Z,8.35
2023-03-08T12:54:59.201Z,8.50
2023-03-08T12:58:05.755Z,10.32
2023-03-08T13:01:24.779Z,10.77
2023-03-08T13:04:40.408Z,8.45
2023-03-08T13:07:56.295Z,8.05
2023-03-08T13:11:08.220Z,10.75
2023-03-08T13:14:27.475Z,15.02
2023-03-08T13:17:36.433Z,10.07
2023-03-08T13:20:59.958Z,12.48
2023-03-08T13:24:20.509Z,17.02
2023-03-08T13:27:36.611Z,25.88
2023-03-08T13:30:47.469Z,17.73
2023-03-08T13:33:52.959Z,12.25
2023-03-08T13:36:56.141Z,32.67
2023-03-08T13:40:01.101Z,11.88
2023-03-08T13:43:08.619Z,16.80
2023-03-08T13:46:17.142Z,11.10
2023-03-08T13:49:24.911Z,11.55
2023-03-08T13:52:33.452Z,7.60
2023-03-08T13:55:41.048Z,7.10
2023-03-08T13:58:47.770Z,17.33
2023-03-08T14:01:54.431Z,16.30
2023-03-08T14:04:58.804Z,13.25
2023-03-08T14:08:04.030Z,11.23
2023-03-08T14:11:09.742Z,12.65
2023-03-08T14:14:18.492Z,17.08
2023-03-08T14:17:27.157Z,12.50
2023-03-08T14:20:30.864Z,8.43
2023-03-08T14:23:39.183Z,14.15
2023-03-08T14:26:42.803Z,16.35
2023-03-08T14:29:47.056Z,18.17
2023-03-08T14:33:06.249Z,11.15
2023-03-08T14:36:11.397Z,8.93
2023-03-08T14:39:19.241Z,19.70
2023-03-08T14:42:25.520Z,13.65
2023-03-08T14:45:34.763Z,13.02
2023-03-08T14:48:39.966Z,14.85
2023-03-08T14:51:44.413Z,17.17
2023-03-08T14:54:47.755Z,16.20
2023-03-08T14:57:52.117Z,13.43
2023-03-08T15:00:57.393Z,22.13
2023-03-08T15:04:02.550Z,20.38
2023-03-08T15:07:07.010Z,23.40
2023-03-08T15:10:19.373Z,17.13
2023-03-08T15:13:24.555Z,26.95
2023-03-08T15:16:27.942Z,23.38
2023-03-08T15:19:32.578Z,26.23
2023-03-08T15:22:41.109Z,19.02
2023-03-08T15:25:45.003Z,20.55
2023-03-08T15:28:48.222Z,16.77
2023-03-08T15:31:51.404Z,17.05
2023-03-08T15:34:55.933Z,24.40
2023-03-08T15:37:59.325Z,31.65
2023-03-08T15:41:04.191Z,42.05
2023-03-08T15:44:08.559Z,204.70
2023-03-08T15:47:11.831Z,87.68
2023-03-08T15:50:18.658Z,46.00
2023-03-08T15:53:34.520Z,30.83
2023-03-08T15:56:44.164Z,25.88
2023-03-08T15:59:47.537Z,27.88
2023-03-08T16:02:52.385Z,32.95
2023-03-08T16:05:58.567Z,51.70
2023-03-08T16:09:01.738Z,58.97
2023-03-08T16:12:05.411Z,65.07
2023-03-08T16:15:09.784Z,166.07
2023-03-08T16:18:13.012Z,76.85
2023-03-08T16:21:18.003Z,51.78
2023-03-08T16:24:21.204Z,192.85
2023-03-08T16:27:24.588Z,74.40
2023-03-08T16:30:27.964Z,86.97
2023-03-08T16:33:31.710Z,78.50
2023-03-08T16:36:36.371Z,48.75
2023-03-08T16:39:39.784Z,51.15
2023-03-08T16:42:43.107Z,52.90
2023-03-08T16:45:55.440Z,47.03
2023-03-08T16:48:59.613Z,80.10
2023-03-08T16:52:04.857Z,121.65
2023-03-08T16:55:09.818Z,139.77
2023-03-08T16:58:13.119Z,127.93
2023-03-08T17:01:18.007Z,91.53
2023-03-08T17:04:22.822Z,109.93
2023-03-08T17:07:27.557Z,89.57
2023-03-08T17:10:31.445Z,90.95
2023-03-08T17:13:35.070Z,82.25
2023-03-08T17:16:42.450Z,87.47
2023-03-08T17:19:46.292Z,59.58
2023-03-08T17:22:50.976Z,156.13
2023-03-08T17:25:54.339Z,105.72
2023-03-08T17:28:57.547Z,97.53
2023-03-08T17:32:00.982Z,108.72
2023-03-08T17:35:05.432Z,285.90
2023-03-08T17:38:10.677Z,373.90
2023-03-08T17:41:15.973Z,327.92
2023-03-08T17:44:19.270Z,1143.85
2023-03-08T17:47:22.593Z,655.55
2023-03-08T17:50:26.029Z,447.40
2023-03-08T17:53:31.055Z,190.00
2023-03-08T17:56:36.607Z,68.78
2023-03-08T17:59:40.117Z,254.50
2023-03-08T18:02:43.916Z,247.95
2023-03-08T18:05:52.333Z,203.32
2023-03-08T18:08:57.565Z,233.20
2023-03-08T18:12:00.810Z,86.32
2023-03-08T18:15:04.393Z,70.68
2023-03-08T18:18:07.675Z,345.27
2023-03-08T18:21:14.089Z,237.82
2023-03-08T18:24:20.658Z,53.78
2023-03-08T18:27:24.035Z,174.70
2023-03-08T18:30:28.734Z,47.70
2023-03-08T18:33:33.013Z,56.30
2023-03-08T18:36:37.222Z,51.20
2023-03-08T18:39:42.730Z,71.18
2023-03-08T18:42:46.291Z,346.80
2023-03-08T18:45:54.491Z,274.50
2023-03-08T18:48:58.795Z,327.45
2023-03-08T18:52:02.446Z,154.13
2023-03-08T18:55:09.589Z,203.48
2023-03-08T18:58:13.384Z,135.30
2023-03-08T19:01:17.816Z,94.20
2023-03-08T19:04:21.807Z,87.45
2023-03-08T19:07:25.067Z,83.97
2023-03-08T19:10:31.325Z,301.98
2023-03-08T19:13:36.209Z,133.95
2023-03-08T19:16:39.928Z,836.47
2023-03-08T19:19:43.727Z,149.23
2023-03-08T19:22:47.351Z,102.18
2023-03-08T19:26:10.030Z,182.95
2023-03-08T19:29:15.451Z,124.43
2023-03-08T19:32:19.901Z,86.20
2023-03-08T19:35:23.443Z,160.07
2023-03-08T19:38:26.925Z,168.48
2023-03-08T19:41:34.542Z,57.95
2023-03-08T19:44:37.808Z,133.55
2023-03-08T19:47:41.117Z,336.63
2023-03-08T19:50:46.261Z,93.07
2023-03-08T19:53:50.009Z,68.50
2023-03-08T19:56:55.540Z,121.75
2023-03-08T20:00:00.391Z,108.05
2023-03-08T20:03:03.715Z,65.53
2023-03-08T20:06:07.645Z,241.65
2023-03-08T20:09:12.871Z,159.30
2023-03-08T20:12:17.472Z,96.82
2023-03-08T20:15:20.733Z,101.10
2023-03-08T20:18:24.127Z,104.78
2023-03-08T20:21:30.010Z,96.15
2023-03-08T20:24:33.366Z,76.65
2023-03-08T20:27:38.471Z,72.45
2023-03-08T20:30:41.825Z,72.75
2023-03-08T20:33:45.226Z,71.63
2023-03-08T20:36:48.433Z,64.22
2023-03-08T20:39:52.529Z,71.80
2023-03-08T20:42:58.139Z,61.55
2023-03-08T20:46:05.906Z,66.22
2023-03-08T20:49:11.114Z,64.13
2023-03-08T20:52:14.349Z,74.20
2023-03-08T20:55:17.873Z,67.63
2023-03-08T20:58:23.003Z,78.22
2023-03-08T21:01:28.194Z,72.63
2023-03-08T21:04:31.937Z,69.05
2023-03-08T21:07:35.516Z,71.05
2023-03-08T21:10:40.188Z,76.00
2023-03-08T21:13:46.126Z,71.55
2023-03-08T21:16:49.397Z,71.68
2023-03-08T21:19:52.985Z,75.32
2023-03-08T21:22:56.937Z,73.63
2023-03-08T21:26:01.138Z,75.30
2023-03-08T21:29:07.961Z,75.50
2023-03-08T21:32:11.553Z,70.40
2023-03-08T21:35:14.935Z,70.90
2023-03-08T21:38:19.374Z,77.85
2023-03-08T21:41:24.560Z,79.07
2023-03-08T21:44:31.580Z,78.28
2023-03-08T21:47:35.290Z,87.65
2023-03-08T21:50:40.357Z,82.68
2023-03-08T21:53:44.583Z,89.47
2023-03-08T21:56:48.248Z,89.15
2023-03-08T21:59:52.883Z,84.93
2023-03-08T22:02:56.252Z,83.78
2023-03-08T22:05:59.915Z,90.53
2023-03-08T22:09:03.924Z,91.03
2023-03-08T22:12:07.690Z,94.90
2023-03-08T22:15:13.380Z,100.88
2023-03-08T22:18:17.088Z,101.88
2023-03-08T22:21:21.006Z,93.60
2023-03-08T22:24:24.765Z,93.05
2023-03-08T22:27:29.015Z,92.07
2023-03-08T22:30:33.708Z,92.18
2023-03-08T22:33:37.086Z,93.10
2023-03-08T22:36:40.282Z,96.05
2023-03-08T22:39:43.744Z,98.88
2023-03-08T22:42:47.437Z,101.63
2023-03-08T22:45:52.037Z,92.70
2023-03-08T22:48:57.597Z,99.32
2023-03-08T22:52:01.012Z,101.30
2023-03-08T22:55:04.918Z,105.45
2023-03-08T22:58:08.146Z,108.82
2023-03-08T23:01:15.804Z,99.82
2023-03-08T23:04:20.122Z,99.63
2023-03-08T23:07:23.353Z,99.95
2023-03-08T23:10:26.595Z,98.57
2023-03-08T23:13:34.524Z,99.68
2023-03-08T23:16:43.709Z,99.55
2023-03-08T23:19:49.796Z,96.22
2023-03-08T23:22:53.550Z,94.80
2023-03-08T23:25:57.258Z,87.95
2023-03-08T23:29:03.197Z,92.07
2023-03-08T23:32:08.710Z,102.00
2023-03-08T23:35:12.537Z,109.90
2023-03-08T23:38:15.762Z,99.63
2023-03-08T23:41:20.138Z,103.95
2023-03-08T23:44:23.275Z,98.25
2023-03-08T23:47:27.883Z,98.63
2023-03-08T23:50:31.040Z,99.35
2023-03-08T23:53:34.827Z,98.05
2023-03-08T23:56:39.665Z,96.28
2023-03-08T23:59:42.845Z,95.40
